ELY5133 LLBG-LCLK
Flight info
| Callsign | ELY5133 |
|---|---|
| Flight time | N/A |
| Altitude | 24000 |
| Route | DAFNA DCT VELOX N131 EMEDA |
| Aircraft | B738/M-SDE2E3FGHIRWXY/LB1 |
Departure
| Time | 2026-05-08 04:44 |
|---|---|
| Airport | Ben Gurion International Airport (LLBG) |
Arrival
| Time | N/A |
|---|---|
| Airport | Larnaca International Airport (LCLK) |
| Time | Latitude | Longitude | Altitude | Speed | Heading |
|---|---|---|---|---|---|
| 2026-05-08 04:29 | 32.00554 | 34.87526 | 116 ft | 0 kts | 279° |
| 2026-05-08 04:34 | 32.00552 | 34.87537 | 115 ft | 4 kts | 279° |
| 2026-05-08 04:35 | 32.00548 | 34.87568 | 119 ft | 4 kts | 279° |
| 2026-05-08 04:35 | 32.00544 | 34.87600 | 117 ft | 4 kts | 278° |
| 2026-05-08 04:35 | 32.00540 | 34.87631 | 116 ft | 4 kts | 276° |
| 2026-05-08 04:35 | 32.00537 | 34.87656 | 115 ft | 4 kts | 294° |
| 2026-05-08 04:36 | 32.00521 | 34.87680 | 114 ft | 4 kts | 327° |
| 2026-05-08 04:36 | 32.00497 | 34.87694 | 117 ft | 4 kts | 344° |
| 2026-05-08 04:36 | 32.00489 | 34.87696 | 116 ft | 1 kts | 347° |
| 2026-05-08 04:38 | 32.00501 | 34.87693 | 116 ft | 5 kts | 347° |
| 2026-05-08 04:39 | 32.00540 | 34.87683 | 119 ft | 6 kts | 347° |
| 2026-05-08 04:39 | 32.00579 | 34.87698 | 119 ft | 6 kts | 32° |
| 2026-05-08 04:39 | 32.00615 | 34.87724 | 119 ft | 6 kts | 32° |
| 2026-05-08 04:39 | 32.00628 | 34.87767 | 118 ft | 6 kts | 105° |
| 2026-05-08 04:40 | 32.00608 | 34.87815 | 117 ft | 7 kts | 119° |
| 2026-05-08 04:40 | 32.00585 | 34.87862 | 116 ft | 7 kts | 121° |
| 2026-05-08 04:40 | 32.00564 | 34.87909 | 118 ft | 5 kts | 98° |
| 2026-05-08 04:40 | 32.00598 | 34.87930 | 119 ft | 8 kts | 13° |
| 2026-05-08 04:41 | 32.00653 | 34.87965 | 115 ft | 12 kts | 31° |
| 2026-05-08 04:41 | 32.00728 | 34.88021 | 119 ft | 13 kts | 34° |
| 2026-05-08 04:41 | 32.00814 | 34.88083 | 118 ft | 17 kts | 28° |
| 2026-05-08 04:41 | 32.00917 | 34.88155 | 117 ft | 17 kts | 36° |
| 2026-05-08 04:42 | 32.01042 | 34.88249 | 114 ft | 26 kts | 32° |
| 2026-05-08 04:42 | 32.01191 | 34.88356 | 117 ft | 24 kts | 32° |
| 2026-05-08 04:42 | 32.01290 | 34.88435 | 116 ft | 12 kts | 38° |
| 2026-05-08 04:42 | 32.01365 | 34.88526 | 119 ft | 20 kts | 51° |
| 2026-05-08 04:43 | 32.01447 | 34.88665 | 117 ft | 21 kts | 60° |
| 2026-05-08 04:43 | 32.01493 | 34.88821 | 117 ft | 21 kts | 79° |
| 2026-05-08 04:43 | 32.01526 | 34.89038 | 118 ft | 30 kts | 77° |
| 2026-05-08 04:43 | 32.01676 | 34.89145 | 113 ft | 24 kts | 352° |
| 2026-05-08 04:44 | 32.01731 | 34.88993 | 118 ft | 38 kts | 259° |
| 2026-05-08 04:44 | 32.01629 | 34.88330 | 117 ft | 124 kts | 260° |
| 2026-05-08 04:44 | 32.01458 | 34.87048 | 265 ft | 182 kts | 261° |
| 2026-05-08 04:44 | 32.01355 | 34.85500 | 1094 ft | 198 kts | 269° |
| 2026-05-08 04:45 | 32.01078 | 34.83972 | 2351 ft | 187 kts | 257° |
| 2026-05-08 04:45 | 32.00765 | 34.82542 | 3456 ft | 174 kts | 262° |